sensor_id;sensor_type;location;lat;lon;timestamp;P1;durP1;ratioP1;P2;durP2;ratioP2
55776;SDS011;54079;44.540;18.784;2024-02-16T00:01:00;9.82;;;6.55;;
55776;SDS011;54079;44.540;18.784;2024-02-16T00:03:27;10.35;;;6.05;;
55776;SDS011;54079;44.540;18.784;2024-02-16T00:05:53;9.82;;;5.80;;
55776;SDS011;54079;44.540;18.784;2024-02-16T00:08:19;9.63;;;4.65;;
55776;SDS011;54079;44.540;18.784;2024-02-16T00:10:45;3.75;;;2.53;;
55776;SDS011;54079;44.540;18.784;2024-02-16T00:13:12;6.78;;;4.57;;
55776;SDS011;54079;44.540;18.784;2024-02-16T00:15:38;10.25;;;5.35;;
55776;SDS011;54079;44.540;18.784;2024-02-16T00:18:05;6.32;;;4.18;;
55776;SDS011;54079;44.540;18.784;2024-02-16T00:20:31;9.20;;;6.50;;
55776;SDS011;54079;44.540;18.784;2024-02-16T00:22:57;14.43;;;8.60;;
55776;SDS011;54079;44.540;18.784;2024-02-16T00:25:25;13.02;;;8.85;;
55776;SDS011;54079;44.540;18.784;2024-02-16T00:27:51;8.73;;;5.47;;
55776;SDS011;54079;44.540;18.784;2024-02-16T00:30:18;7.88;;;5.55;;
55776;SDS011;54079;44.540;18.784;2024-02-16T00:32:45;11.63;;;6.32;;
55776;SDS011;54079;44.540;18.784;2024-02-16T00:35:11;12.98;;;7.45;;
55776;SDS011;54079;44.540;18.784;2024-02-16T00:37:37;10.18;;;5.35;;
55776;SDS011;54079;44.540;18.784;2024-02-16T00:40:03;10.38;;;6.72;;
55776;SDS011;54079;44.540;18.784;2024-02-16T00:42:31;6.78;;;3.92;;
55776;SDS011;54079;44.540;18.784;2024-02-16T00:44:57;6.70;;;4.13;;
55776;SDS011;54079;44.540;18.784;2024-02-16T00:47:25;8.20;;;5.50;;
55776;SDS011;54079;44.540;18.784;2024-02-16T00:49:55;9.25;;;5.88;;
55776;SDS011;54079;44.540;18.784;2024-02-16T00:52:22;7.20;;;3.88;;
55776;SDS011;54079;44.540;18.784;2024-02-16T00:54:48;5.68;;;3.33;;
55776;SDS011;54079;44.540;18.784;2024-02-16T00:57:14;7.22;;;3.72;;
55776;SDS011;54079;44.540;18.784;2024-02-16T00:59:41;7.60;;;3.67;;
55776;SDS011;54079;44.540;18.784;2024-02-16T01:02:07;6.95;;;4.63;;
55776;SDS011;54079;44.540;18.784;2024-02-16T01:04:35;8.73;;;5.15;;
55776;SDS011;54079;44.540;18.784;2024-02-16T01:07:01;6.25;;;3.83;;
55776;SDS011;54079;44.540;18.784;2024-02-16T01:09:28;4.03;;;2.35;;
55776;SDS011;54079;44.540;18.784;2024-02-16T01:11:54;7.80;;;3.88;;
55776;SDS011;54079;44.540;18.784;2024-02-16T01:14:20;7.55;;;4.50;;
55776;SDS011;54079;44.540;18.784;2024-02-16T01:16:46;5.78;;;3.65;;
55776;SDS011;54079;44.540;18.784;2024-02-16T01:19:12;5.43;;;3.15;;
55776;SDS011;54079;44.540;18.784;2024-02-16T01:21:38;3.05;;;1.52;;
55776;SDS011;54079;44.540;18.784;2024-02-16T01:24:04;5.65;;;3.67;;
55776;SDS011;54079;44.540;18.784;2024-02-16T01:26:31;7.85;;;4.32;;
55776;SDS011;54079;44.540;18.784;2024-02-16T01:28:58;8.38;;;4.55;;
55776;SDS011;54079;44.540;18.784;2024-02-16T01:31:24;4.28;;;2.10;;
55776;SDS011;54079;44.540;18.784;2024-02-16T01:33:51;6.25;;;3.90;;
55776;SDS011;54079;44.540;18.784;2024-02-16T01:36:18;13.50;;;7.85;;
55776;SDS011;54079;44.540;18.784;2024-02-16T01:38:44;9.30;;;5.70;;
55776;SDS011;54079;44.540;18.784;2024-02-16T01:41:10;10.80;;;6.53;;
55776;SDS011;54079;44.540;18.784;2024-02-16T01:43:36;6.80;;;4.28;;
55776;SDS011;54079;44.540;18.784;2024-02-16T01:46:02;6.93;;;4.57;;
55776;SDS011;54079;44.540;18.784;2024-02-16T01:48:28;7.18;;;4.70;;
55776;SDS011;54079;44.540;18.784;2024-02-16T01:50:54;5.65;;;3.60;;
55776;SDS011;54079;44.540;18.784;2024-02-16T01:53:21;6.60;;;4.03;;
55776;SDS011;54079;44.540;18.784;2024-02-16T01:55:48;8.13;;;5.25;;
55776;SDS011;54079;44.540;18.784;2024-02-16T01:58:15;9.00;;;5.22;;
55776;SDS011;54079;44.540;18.784;2024-02-16T02:00:41;6.05;;;3.58;;
55776;SDS011;54079;44.540;18.784;2024-02-16T02:03:07;5.70;;;3.40;;
55776;SDS011;54079;44.540;18.784;2024-02-16T02:05:33;6.97;;;4.20;;
55776;SDS011;54079;44.540;18.784;2024-02-16T02:08:08;5.65;;;3.53;;
55776;SDS011;54079;44.540;18.784;2024-02-16T02:10:35;4.38;;;2.72;;
55776;SDS011;54079;44.540;18.784;2024-02-16T02:13:01;6.68;;;3.97;;
55776;SDS011;54079;44.540;18.784;2024-02-16T02:15:27;3.83;;;2.88;;
55776;SDS011;54079;44.540;18.784;2024-02-16T02:17:53;3.67;;;2.63;;
55776;SDS011;54079;44.540;18.784;2024-02-16T02:20:19;4.20;;;3.15;;
55776;SDS011;54079;44.540;18.784;2024-02-16T02:22:45;4.85;;;3.05;;
55776;SDS011;54079;44.540;18.784;2024-02-16T02:25:11;5.63;;;3.60;;
55776;SDS011;54079;44.540;18.784;2024-02-16T02:27:37;5.32;;;4.15;;
55776;SDS011;54079;44.540;18.784;2024-02-16T02:30:04;4.05;;;2.72;;
55776;SDS011;54079;44.540;18.784;2024-02-16T02:32:31;5.05;;;3.30;;
55776;SDS011;54079;44.540;18.784;2024-02-16T02:34:57;5.13;;;3.42;;
55776;SDS011;54079;44.540;18.784;2024-02-16T02:37:23;4.80;;;3.50;;
55776;SDS011;54079;44.540;18.784;2024-02-16T02:39:49;4.60;;;2.92;;
55776;SDS011;54079;44.540;18.784;2024-02-16T02:42:15;4.35;;;3.08;;
55776;SDS011;54079;44.540;18.784;2024-02-16T02:44:42;4.72;;;2.65;;
55776;SDS011;54079;44.540;18.784;2024-02-16T02:47:14;4.25;;;3.08;;
55776;SDS011;54079;44.540;18.784;2024-02-16T02:49:43;2.10;;;1.67;;
55776;SDS011;54079;44.540;18.784;2024-02-16T02:52:10;3.28;;;2.00;;
55776;SDS011;54079;44.540;18.784;2024-02-16T02:54:36;3.60;;;2.28;;
55776;SDS011;54079;44.540;18.784;2024-02-16T02:57:02;4.00;;;2.70;;
55776;SDS011;54079;44.540;18.784;2024-02-16T02:59:28;6.85;;;4.43;;
55776;SDS011;54079;44.540;18.784;2024-02-16T03:01:54;5.15;;;2.88;;
55776;SDS011;54079;44.540;18.784;2024-02-16T03:04:20;3.53;;;2.00;;
55776;SDS011;54079;44.540;18.784;2024-02-16T03:06:46;3.13;;;1.70;;
55776;SDS011;54079;44.540;18.784;2024-02-16T03:09:12;3.65;;;2.42;;
55776;SDS011;54079;44.540;18.784;2024-02-16T03:11:38;6.10;;;3.60;;
55776;SDS011;54079;44.540;18.784;2024-02-16T03:14:05;5.80;;;3.90;;
55776;SDS011;54079;44.540;18.784;2024-02-16T03:16:31;4.32;;;2.78;;
55776;SDS011;54079;44.540;18.784;2024-02-16T03:18:57;2.92;;;1.77;;
55776;SDS011;54079;44.540;18.784;2024-02-16T03:21:24;4.30;;;2.75;;
55776;SDS011;54079;44.540;18.784;2024-02-16T03:23:50;5.95;;;3.70;;
55776;SDS011;54079;44.540;18.784;2024-02-16T03:26:16;5.70;;;3.80;;
55776;SDS011;54079;44.540;18.784;2024-02-16T03:28:44;4.63;;;2.45;;
55776;SDS011;54079;44.540;18.784;2024-02-16T03:31:19;2.63;;;1.77;;
55776;SDS011;54079;44.540;18.784;2024-02-16T03:33:47;3.42;;;2.22;;
55776;SDS011;54079;44.540;18.784;2024-02-16T03:36:14;4.22;;;2.90;;
55776;SDS011;54079;44.540;18.784;2024-02-16T03:38:41;3.58;;;2.25;;
55776;SDS011;54079;44.540;18.784;2024-02-16T03:41:10;1.67;;;1.27;;
55776;SDS011;54079;44.540;18.784;2024-02-16T03:43:39;2.60;;;1.70;;
55776;SDS011;54079;44.540;18.784;2024-02-16T03:46:05;4.90;;;3.08;;
55776;SDS011;54079;44.540;18.784;2024-02-16T03:48:31;4.40;;;3.38;;
55776;SDS011;54079;44.540;18.784;2024-02-16T03:50:57;6.30;;;3.75;;
55776;SDS011;54079;44.540;18.784;2024-02-16T03:53:23;4.25;;;2.47;;
55776;SDS011;54079;44.540;18.784;2024-02-16T03:55:49;3.90;;;2.40;;
55776;SDS011;54079;44.540;18.784;2024-02-16T03:58:16;2.38;;;1.20;;
55776;SDS011;54079;44.540;18.784;2024-02-16T04:00:42;3.13;;;1.42;;
55776;SDS011;54079;44.540;18.784;2024-02-16T04:03:08;2.83;;;1.98;;
55776;SDS011;54079;44.540;18.784;2024-02-16T04:05:35;3.60;;;2.50;;
55776;SDS011;54079;44.540;18.784;2024-02-16T04:08:03;3.08;;;1.65;;
55776;SDS011;54079;44.540;18.784;2024-02-16T04:10:30;2.33;;;1.60;;
55776;SDS011;54079;44.540;18.784;2024-02-16T04:12:56;2.95;;;1.48;;
55776;SDS011;54079;44.540;18.784;2024-02-16T04:15:22;1.90;;;0.98;;
55776;SDS011;54079;44.540;18.784;2024-02-16T04:17:48;2.42;;;1.60;;
55776;SDS011;54079;44.540;18.784;2024-02-16T04:20:17;4.63;;;3.40;;
55776;SDS011;54079;44.540;18.784;2024-02-16T04:22:43;2.90;;;2.30;;
55776;SDS011;54079;44.540;18.784;2024-02-16T04:25:09;3.03;;;1.33;;
55776;SDS011;54079;44.540;18.784;2024-02-16T04:27:36;1.38;;;1.10;;
55776;SDS011;54079;44.540;18.784;2024-02-16T04:30:02;1.70;;;1.35;;
55776;SDS011;54079;44.540;18.784;2024-02-16T04:32:29;2.35;;;0.90;;
55776;SDS011;54079;44.540;18.784;2024-02-16T04:34:55;1.65;;;1.15;;
55776;SDS011;54079;44.540;18.784;2024-02-16T04:37:21;2.35;;;1.55;;
55776;SDS011;54079;44.540;18.784;2024-02-16T04:39:48;7.47;;;3.90;;
55776;SDS011;54079;44.540;18.784;2024-02-16T04:42:15;5.25;;;3.50;;
55776;SDS011;54079;44.540;18.784;2024-02-16T04:44:41;7.10;;;4.40;;
55776;SDS011;54079;44.540;18.784;2024-02-16T04:47:07;9.45;;;6.68;;
55776;SDS011;54079;44.540;18.784;2024-02-16T04:49:37;5.20;;;3.42;;
55776;SDS011;54079;44.540;18.784;2024-02-16T04:52:03;5.78;;;2.85;;
55776;SDS011;54079;44.540;18.784;2024-02-16T04:54:29;3.63;;;2.40;;
55776;SDS011;54079;44.540;18.784;2024-02-16T04:56:55;3.28;;;2.75;;
55776;SDS011;54079;44.540;18.784;2024-02-16T04:59:21;5.38;;;2.97;;
55776;SDS011;54079;44.540;18.784;2024-02-16T05:01:47;6.95;;;3.53;;
55776;SDS011;54079;44.540;18.784;2024-02-16T05:04:13;8.07;;;5.20;;
55776;SDS011;54079;44.540;18.784;2024-02-16T05:06:45;6.22;;;4.03;;
55776;SDS011;54079;44.540;18.784;2024-02-16T05:09:11;4.07;;;2.78;;
55776;SDS011;54079;44.540;18.784;2024-02-16T05:11:44;6.50;;;4.50;;
55776;SDS011;54079;44.540;18.784;2024-02-16T05:14:11;4.47;;;3.17;;
55776;SDS011;54079;44.540;18.784;2024-02-16T05:16:37;6.55;;;4.68;;
55776;SDS011;54079;44.540;18.784;2024-02-16T05:19:07;9.73;;;5.72;;
55776;SDS011;54079;44.540;18.784;2024-02-16T05:21:33;7.07;;;4.30;;
55776;SDS011;54079;44.540;18.784;2024-02-16T05:24:00;5.25;;;3.05;;
55776;SDS011;54079;44.540;18.784;2024-02-16T05:26:27;4.68;;;3.05;;
55776;SDS011;54079;44.540;18.784;2024-02-16T05:28:53;7.20;;;4.05;;
55776;SDS011;54079;44.540;18.784;2024-02-16T05:31:19;5.15;;;3.78;;
55776;SDS011;54079;44.540;18.784;2024-02-16T05:33:47;2.83;;;1.80;;
55776;SDS011;54079;44.540;18.784;2024-02-16T05:38:45;7.90;;;4.80;;
55776;SDS011;54079;44.540;18.784;2024-02-16T05:41:11;5.35;;;3.25;;
55776;SDS011;54079;44.540;18.784;2024-02-16T05:43:37;4.60;;;2.80;;
55776;SDS011;54079;44.540;18.784;2024-02-16T05:46:07;8.82;;;5.35;;
55776;SDS011;54079;44.540;18.784;2024-02-16T05:48:41;5.55;;;3.80;;
55776;SDS011;54079;44.540;18.784;2024-02-16T05:51:07;5.57;;;3.40;;
55776;SDS011;54079;44.540;18.784;2024-02-16T05:53:34;6.65;;;4.18;;
55776;SDS011;54079;44.540;18.784;2024-02-16T05:56:00;8.60;;;5.70;;
55776;SDS011;54079;44.540;18.784;2024-02-16T05:58:26;10.80;;;6.63;;
55776;SDS011;54079;44.540;18.784;2024-02-16T06:00:54;12.15;;;6.53;;
55776;SDS011;54079;44.540;18.784;2024-02-16T06:03:20;5.78;;;3.85;;
55776;SDS011;54079;44.540;18.784;2024-02-16T06:05:46;4.50;;;2.38;;
55776;SDS011;54079;44.540;18.784;2024-02-16T06:08:13;2.28;;;1.73;;
55776;SDS011;54079;44.540;18.784;2024-02-16T06:10:42;12.65;;;7.60;;
55776;SDS011;54079;44.540;18.784;2024-02-16T06:13:08;16.35;;;9.55;;
55776;SDS011;54079;44.540;18.784;2024-02-16T06:15:34;10.65;;;7.03;;
55776;SDS011;54079;44.540;18.784;2024-02-16T06:18:02;5.93;;;3.97;;
55776;SDS011;54079;44.540;18.784;2024-02-16T06:20:28;3.75;;;2.42;;
55776;SDS011;54079;44.540;18.784;2024-02-16T06:22:54;5.00;;;3.42;;
55776;SDS011;54079;44.540;18.784;2024-02-16T06:25:20;5.97;;;2.95;;
55776;SDS011;54079;44.540;18.784;2024-02-16T06:27:46;8.95;;;5.05;;
55776;SDS011;54079;44.540;18.784;2024-02-16T06:30:12;6.85;;;4.38;;
55776;SDS011;54079;44.540;18.784;2024-02-16T06:32:41;5.13;;;2.50;;
55776;SDS011;54079;44.540;18.784;2024-02-16T06:35:08;6.78;;;4.43;;
55776;SDS011;54079;44.540;18.784;2024-02-16T06:37:34;2.33;;;1.55;;
55776;SDS011;54079;44.540;18.784;2024-02-16T06:40:02;6.15;;;4.00;;
55776;SDS011;54079;44.540;18.784;2024-02-16T06:42:29;10.68;;;6.45;;
55776;SDS011;54079;44.540;18.784;2024-02-16T06:44:55;9.10;;;5.35;;
55776;SDS011;54079;44.540;18.784;2024-02-16T06:47:21;9.15;;;6.10;;
55776;SDS011;54079;44.540;18.784;2024-02-16T06:49:50;5.20;;;4.10;;
55776;SDS011;54079;44.540;18.784;2024-02-16T06:52:16;11.48;;;7.30;;
55776;SDS011;54079;44.540;18.784;2024-02-16T06:54:42;6.30;;;3.90;;
55776;SDS011;54079;44.540;18.784;2024-02-16T06:57:08;18.88;;;11.05;;
55776;SDS011;54079;44.540;18.784;2024-02-16T06:59:34;17.00;;;9.38;;
55776;SDS011;54079;44.540;18.784;2024-02-16T07:02:00;14.70;;;9.52;;
55776;SDS011;54079;44.540;18.784;2024-02-16T07:04:26;8.93;;;5.43;;
55776;SDS011;54079;44.540;18.784;2024-02-16T07:06:52;3.58;;;2.35;;
55776;SDS011;54079;44.540;18.784;2024-02-16T07:09:18;2.33;;;1.77;;
55776;SDS011;54079;44.540;18.784;2024-02-16T07:11:44;6.25;;;3.53;;
55776;SDS011;54079;44.540;18.784;2024-02-16T07:14:12;7.78;;;5.32;;
55776;SDS011;54079;44.540;18.784;2024-02-16T07:16:38;10.25;;;6.93;;
55776;SDS011;54079;44.540;18.784;2024-02-16T07:19:04;5.68;;;3.67;;
55776;SDS011;54079;44.540;18.784;2024-02-16T07:21:30;9.85;;;6.40;;
55776;SDS011;54079;44.540;18.784;2024-02-16T07:23:56;10.98;;;7.78;;
55776;SDS011;54079;44.540;18.784;2024-02-16T07:26:22;5.63;;;4.75;;
55776;SDS011;54079;44.540;18.784;2024-02-16T07:28:48;12.07;;;11.30;;
55776;SDS011;54079;44.540;18.784;2024-02-16T07:31:14;19.55;;;18.10;;
55776;SDS011;54079;44.540;18.784;2024-02-16T07:33:41;24.23;;;22.45;;
55776;SDS011;54079;44.540;18.784;2024-02-16T07:36:07;26.55;;;24.63;;
55776;SDS011;54079;44.540;18.784;2024-02-16T07:38:33;25.88;;;24.30;;
55776;SDS011;54079;44.540;18.784;2024-02-16T07:41:00;1999.90;;;999.90;;
55776;SDS011;54079;44.540;18.784;2024-02-16T07:43:27;1999.90;;;999.90;;
55776;SDS011;54079;44.540;18.784;2024-02-16T07:45:53;1999.90;;;999.90;;
55776;SDS011;54079;44.540;18.784;2024-02-16T07:48:22;1999.90;;;999.90;;
55776;SDS011;54079;44.540;18.784;2024-02-16T07:50:48;1999.90;;;999.90;;
55776;SDS011;54079;44.540;18.784;2024-02-16T07:53:17;1999.90;;;999.90;;
55776;SDS011;54079;44.540;18.784;2024-02-16T07:55:43;1999.90;;;999.90;;
55776;SDS011;54079;44.540;18.784;2024-02-16T07:58:09;1999.90;;;999.90;;
55776;SDS011;54079;44.540;18.784;2024-02-16T08:00:35;1999.90;;;999.90;;
55776;SDS011;54079;44.540;18.784;2024-02-16T08:03:01;1999.90;;;999.90;;
55776;SDS011;54079;44.540;18.784;2024-02-16T08:05:27;1999.90;;;999.90;;
55776;SDS011;54079;44.540;18.784;2024-02-16T08:07:53;1999.90;;;999.90;;
55776;SDS011;54079;44.540;18.784;2024-02-16T08:10:20;66.68;;;61.85;;
55776;SDS011;54079;44.540;18.784;2024-02-16T08:12:47;44.42;;;41.38;;
55776;SDS011;54079;44.540;18.784;2024-02-16T08:15:13;39.33;;;36.13;;
55776;SDS011;54079;44.540;18.784;2024-02-16T08:17:39;50.13;;;45.85;;
55776;SDS011;54079;44.540;18.784;2024-02-16T08:20:06;38.88;;;34.83;;
55776;SDS011;54079;44.540;18.784;2024-02-16T08:22:32;28.92;;;26.17;;
55776;SDS011;54079;44.540;18.784;2024-02-16T08:24:59;20.90;;;18.48;;
55776;SDS011;54079;44.540;18.784;2024-02-16T08:27:25;15.80;;;14.02;;
55776;SDS011;54079;44.540;18.784;2024-02-16T08:29:51;16.17;;;14.45;;
55776;SDS011;54079;44.540;18.784;2024-02-16T08:32:17;18.20;;;15.90;;
55776;SDS011;54079;44.540;18.784;2024-02-16T08:34:45;13.43;;;11.98;;
55776;SDS011;54079;44.540;18.784;2024-02-16T08:37:13;17.95;;;15.85;;
55776;SDS011;54079;44.540;18.784;2024-02-16T08:39:39;14.73;;;13.15;;
55776;SDS011;54079;44.540;18.784;2024-02-16T08:42:06;21.42;;;17.77;;
55776;SDS011;54079;44.540;18.784;2024-02-16T08:44:34;26.20;;;22.65;;
55776;SDS011;54079;44.540;18.784;2024-02-16T08:47:01;15.20;;;13.60;;
55776;SDS011;54079;44.540;18.784;2024-02-16T08:49:27;16.85;;;14.98;;
55776;SDS011;54079;44.540;18.784;2024-02-16T08:51:52;16.65;;;14.85;;
55776;SDS011;54079;44.540;18.784;2024-02-16T08:54:18;15.68;;;14.07;;
55776;SDS011;54079;44.540;18.784;2024-02-16T08:56:45;30.20;;;26.40;;
55776;SDS011;54079;44.540;18.784;2024-02-16T08:59:11;24.15;;;21.17;;
55776;SDS011;54079;44.540;18.784;2024-02-16T09:01:37;21.20;;;18.83;;
55776;SDS011;54079;44.540;18.784;2024-02-16T09:04:04;13.15;;;11.75;;
55776;SDS011;54079;44.540;18.784;2024-02-16T09:06:31;33.50;;;29.90;;
55776;SDS011;54079;44.540;18.784;2024-02-16T09:08:57;17.65;;;14.45;;
55776;SDS011;54079;44.540;18.784;2024-02-16T09:11:23;33.13;;;27.10;;
55776;SDS011;54079;44.540;18.784;2024-02-16T09:13:49;44.88;;;36.53;;
55776;SDS011;54079;44.540;18.784;2024-02-16T09:16:15;30.05;;;25.15;;
55776;SDS011;54079;44.540;18.784;2024-02-16T09:18:41;34.33;;;29.85;;
55776;SDS011;54079;44.540;18.784;2024-02-16T09:21:07;56.08;;;44.33;;
55776;SDS011;54079;44.540;18.784;2024-02-16T09:23:34;10.52;;;9.40;;
55776;SDS011;54079;44.540;18.784;2024-02-16T09:26:01;10.38;;;8.82;;
55776;SDS011;54079;44.540;18.784;2024-02-16T09:28:27;36.05;;;27.05;;
55776;SDS011;54079;44.540;18.784;2024-02-16T09:30:57;20.88;;;17.77;;
55776;SDS011;54079;44.540;18.784;2024-02-16T09:33:23;2.00;;;1.80;;
55776;SDS011;54079;44.540;18.784;2024-02-16T09:35:49;10.35;;;9.15;;
55776;SDS011;54079;44.540;18.784;2024-02-16T09:38:16;30.25;;;25.02;;
55776;SDS011;54079;44.540;18.784;2024-02-16T09:40:42;5.32;;;4.60;;
55776;SDS011;54079;44.540;18.784;2024-02-16T09:43:09;5.78;;;5.05;;
55776;SDS011;54079;44.540;18.784;2024-02-16T09:45:36;26.60;;;19.80;;
55776;SDS011;54079;44.540;18.784;2024-02-16T09:48:02;12.38;;;9.88;;
55776;SDS011;54079;44.540;18.784;2024-02-16T09:50:35;13.57;;;9.50;;
55776;SDS011;54079;44.540;18.784;2024-02-16T09:53:01;19.95;;;16.13;;
55776;SDS011;54079;44.540;18.784;2024-02-16T09:55:31;0.88;;;0.82;;
55776;SDS011;54079;44.540;18.784;2024-02-16T09:58:01;15.90;;;12.18;;
55776;SDS011;54079;44.540;18.784;2024-02-16T10:00:27;28.58;;;20.67;;
55776;SDS011;54079;44.540;18.784;2024-02-16T10:02:53;7.72;;;5.82;;
55776;SDS011;54079;44.540;18.784;2024-02-16T10:05:20;21.00;;;15.48;;
55776;SDS011;54079;44.540;18.784;2024-02-16T10:07:47;21.35;;;16.52;;
55776;SDS011;54079;44.540;18.784;2024-02-16T10:10:23;23.30;;;17.45;;
55776;SDS011;54079;44.540;18.784;2024-02-16T10:15:29;1.88;;;1.58;;
55776;SDS011;54079;44.540;18.784;2024-02-16T10:20:24;8.20;;;6.45;;
55776;SDS011;54079;44.540;18.784;2024-02-16T10:23:10;0.68;;;0.60;;
55776;SDS011;54079;44.540;18.784;2024-02-16T10:25:38;7.53;;;4.38;;
55776;SDS011;54079;44.540;18.784;2024-02-16T10:28:08;15.02;;;9.15;;
55776;SDS011;54079;44.540;18.784;2024-02-16T10:30:39;23.33;;;16.95;;
55776;SDS011;54079;44.540;18.784;2024-02-16T10:33:08;18.77;;;13.43;;
55776;SDS011;54079;44.540;18.784;2024-02-16T10:35:37;14.55;;;9.57;;
55776;SDS011;54079;44.540;18.784;2024-02-16T10:38:03;7.60;;;5.32;;
55776;SDS011;54079;44.540;18.784;2024-02-16T10:40:41;2.20;;;1.63;;
55776;SDS011;54079;44.540;18.784;2024-02-16T10:43:08;13.27;;;8.88;;
55776;SDS011;54079;44.540;18.784;2024-02-16T10:45:36;23.60;;;16.58;;
55776;SDS011;54079;44.540;18.784;2024-02-16T10:48:03;28.50;;;19.98;;
55776;SDS011;54079;44.540;18.784;2024-02-16T10:50:31;3.67;;;2.58;;
55776;SDS011;54079;44.540;18.784;2024-02-16T10:52:58;1.40;;;1.05;;
55776;SDS011;54079;44.540;18.784;2024-02-16T10:57:56;8.02;;;5.53;;
55776;SDS011;54079;44.540;18.784;2024-02-16T11:00:24;1.85;;;1.20;;
55776;SDS011;54079;44.540;18.784;2024-02-16T11:05:33;20.60;;;12.27;;
55776;SDS011;54079;44.540;18.784;2024-02-16T11:08:16;9.75;;;5.88;;
55776;SDS011;54079;44.540;18.784;2024-02-16T11:13:26;1.60;;;0.70;;
55776;SDS011;54079;44.540;18.784;2024-02-16T11:15:56;8.15;;;4.50;;
55776;SDS011;54079;44.540;18.784;2024-02-16T11:18:32;6.05;;;4.32;;
55776;SDS011;54079;44.540;18.784;2024-02-16T11:21:04;19.55;;;13.20;;
55776;SDS011;54079;44.540;18.784;2024-02-16T11:23:34;4.72;;;2.47;;
55776;SDS011;54079;44.540;18.784;2024-02-16T11:26:04;16.63;;;10.50;;
55776;SDS011;54079;44.540;18.784;2024-02-16T11:28:36;10.68;;;8.43;;
55776;SDS011;54079;44.540;18.784;2024-02-16T11:31:03;1.05;;;0.85;;
55776;SDS011;54079;44.540;18.784;2024-02-16T11:33:29;4.22;;;2.33;;
55776;SDS011;54079;44.540;18.784;2024-02-16T11:35:59;12.48;;;7.22;;
55776;SDS011;54079;44.540;18.784;2024-02-16T11:38:26;11.18;;;7.20;;
55776;SDS011;54079;44.540;18.784;2024-02-16T11:40:53;10.10;;;6.55;;
55776;SDS011;54079;44.540;18.784;2024-02-16T11:43:24;8.80;;;6.77;;
55776;SDS011;54079;44.540;18.784;2024-02-16T11:45:51;10.20;;;7.97;;
55776;SDS011;54079;44.540;18.784;2024-02-16T11:48:24;12.32;;;7.38;;
55776;SDS011;54079;44.540;18.784;2024-02-16T11:51:02;17.40;;;12.27;;
55776;SDS011;54079;44.540;18.784;2024-02-16T11:53:29;8.60;;;5.78;;
55776;SDS011;54079;44.540;18.784;2024-02-16T11:55:56;5.82;;;4.07;;
55776;SDS011;54079;44.540;18.784;2024-02-16T11:58:23;8.90;;;7.03;;
55776;SDS011;54079;44.540;18.784;2024-02-16T12:00:50;10.95;;;8.10;;
55776;SDS011;54079;44.540;18.784;2024-02-16T12:03:20;7.43;;;5.13;;
55776;SDS011;54079;44.540;18.784;2024-02-16T12:05:53;5.88;;;4.00;;
55776;SDS011;54079;44.540;18.784;2024-02-16T12:08:21;3.73;;;3.03;;
55776;SDS011;54079;44.540;18.784;2024-02-16T12:10:48;8.18;;;4.57;;
55776;SDS011;54079;44.540;18.784;2024-02-16T12:13:20;3.00;;;2.55;;
55776;SDS011;54079;44.540;18.784;2024-02-16T12:15:51;2.17;;;1.50;;
55776;SDS011;54079;44.540;18.784;2024-02-16T12:18:23;6.13;;;4.07;;
55776;SDS011;54079;44.540;18.784;2024-02-16T12:21:03;3.35;;;2.60;;
55776;SDS011;54079;44.540;18.784;2024-02-16T12:23:35;2.30;;;1.77;;
55776;SDS011;54079;44.540;18.784;2024-02-16T12:26:02;2.70;;;2.42;;
55776;SDS011;54079;44.540;18.784;2024-02-16T12:28:30;5.82;;;3.10;;
55776;SDS011;54079;44.540;18.784;2024-02-16T12:31:00;8.93;;;5.40;;
55776;SDS011;54079;44.540;18.784;2024-02-16T12:33:26;4.15;;;3.08;;
55776;SDS011;54079;44.540;18.784;2024-02-16T12:35:52;3.88;;;2.85;;
55776;SDS011;54079;44.540;18.784;2024-02-16T12:38:19;2.53;;;1.60;;
55776;SDS011;54079;44.540;18.784;2024-02-16T12:40:51;1.00;;;0.80;;
55776;SDS011;54079;44.540;18.784;2024-02-16T12:45:44;1.23;;;0.70;;
55776;SDS011;54079;44.540;18.784;2024-02-16T12:48:10;7.53;;;4.18;;
55776;SDS011;54079;44.540;18.784;2024-02-16T12:50:39;6.57;;;4.18;;
55776;SDS011;54079;44.540;18.784;2024-02-16T12:53:07;1.23;;;1.13;;
55776;SDS011;54079;44.540;18.784;2024-02-16T12:55:33;1.15;;;0.85;;
55776;SDS011;54079;44.540;18.784;2024-02-16T12:57:59;2.70;;;1.98;;
55776;SDS011;54079;44.540;18.784;2024-02-16T13:00:25;4.72;;;3.70;;
55776;SDS011;54079;44.540;18.784;2024-02-16T13:02:51;8.50;;;5.13;;
55776;SDS011;54079;44.540;18.784;2024-02-16T13:05:17;9.23;;;6.20;;
55776;SDS011;54079;44.540;18.784;2024-02-16T13:07:43;5.38;;;4.05;;
55776;SDS011;54079;44.540;18.784;2024-02-16T13:10:09;2.92;;;1.92;;
55776;SDS011;54079;44.540;18.784;2024-02-16T13:12:35;3.78;;;2.50;;
55776;SDS011;54079;44.540;18.784;2024-02-16T13:15:03;1.83;;;1.50;;
55776;SDS011;54079;44.540;18.784;2024-02-16T13:17:30;2.00;;;1.20;;
55776;SDS011;54079;44.540;18.784;2024-02-16T13:19:56;8.57;;;5.90;;
55776;SDS011;54079;44.540;18.784;2024-02-16T13:22:31;5.38;;;3.65;;
55776;SDS011;54079;44.540;18.784;2024-02-16T13:27:29;4.50;;;2.58;;
55776;SDS011;54079;44.540;18.784;2024-02-16T13:29:55;3.55;;;2.22;;
55776;SDS011;54079;44.540;18.784;2024-02-16T13:32:21;2.15;;;1.52;;
55776;SDS011;54079;44.540;18.784;2024-02-16T13:34:50;2.40;;;1.38;;
55776;SDS011;54079;44.540;18.784;2024-02-16T13:37:16;1.88;;;1.63;;
55776;SDS011;54079;44.540;18.784;2024-02-16T13:39:42;1.60;;;1.38;;
55776;SDS011;54079;44.540;18.784;2024-02-16T13:42:08;2.97;;;2.00;;
55776;SDS011;54079;44.540;18.784;2024-02-16T13:44:34;7.40;;;5.85;;
55776;SDS011;54079;44.540;18.784;2024-02-16T13:47:00;8.63;;;5.20;;
55776;SDS011;54079;44.540;18.784;2024-02-16T13:49:26;4.10;;;2.45;;
55776;SDS011;54079;44.540;18.784;2024-02-16T13:51:52;4.90;;;3.55;;
55776;SDS011;54079;44.540;18.784;2024-02-16T13:54:19;5.40;;;3.47;;
55776;SDS011;54079;44.540;18.784;2024-02-16T13:56:46;11.18;;;8.30;;
55776;SDS011;54079;44.540;18.784;2024-02-16T13:59:12;9.75;;;6.45;;
55776;SDS011;54079;44.540;18.784;2024-02-16T14:01:38;5.43;;;3.90;;
55776;SDS011;54079;44.540;18.784;2024-02-16T14:04:04;11.95;;;8.70;;
55776;SDS011;54079;44.540;18.784;2024-02-16T14:06:30;5.65;;;4.80;;
55776;SDS011;54079;44.540;18.784;2024-02-16T14:08:56;10.60;;;7.55;;
55776;SDS011;54079;44.540;18.784;2024-02-16T14:11:22;6.43;;;5.32;;
55776;SDS011;54079;44.540;18.784;2024-02-16T14:13:48;9.95;;;6.80;;
55776;SDS011;54079;44.540;18.784;2024-02-16T14:16:15;9.15;;;5.53;;
55776;SDS011;54079;44.540;18.784;2024-02-16T14:18:41;8.52;;;5.68;;
55776;SDS011;54079;44.540;18.784;2024-02-16T14:21:08;7.13;;;4.28;;
55776;SDS011;54079;44.540;18.784;2024-02-16T14:23:34;5.95;;;4.05;;
55776;SDS011;54079;44.540;18.784;2024-02-16T14:26:00;11.70;;;7.35;;
55776;SDS011;54079;44.540;18.784;2024-02-16T14:28:25;8.55;;;5.30;;
55776;SDS011;54079;44.540;18.784;2024-02-16T14:30:52;12.80;;;8.02;;
55776;SDS011;54079;44.540;18.784;2024-02-16T14:33:18;12.18;;;8.00;;
55776;SDS011;54079;44.540;18.784;2024-02-16T14:35:44;10.02;;;7.38;;
55776;SDS011;54079;44.540;18.784;2024-02-16T14:38:11;9.00;;;6.65;;
55776;SDS011;54079;44.540;18.784;2024-02-16T14:40:38;12.05;;;8.13;;
55776;SDS011;54079;44.540;18.784;2024-02-16T14:43:04;10.13;;;7.60;;
55776;SDS011;54079;44.540;18.784;2024-02-16T14:45:30;10.40;;;7.30;;